sensor_id;sensor_type;location;lat;lon;timestamp;pressure;altitude;pressure_sealevel;temperature;humidity
8705;BME280;4389;41.932;25.904;2023-02-12T00:00:15;101656.75;;;-4.71;75.52
8705;BME280;4389;41.932;25.904;2023-02-12T00:02:42;101664.78;;;-5.07;76.11
8705;BME280;4389;41.932;25.904;2023-02-12T00:05:10;101667.28;;;-4.99;77.07
8705;BME280;4389;41.932;25.904;2023-02-12T00:07:37;101662.88;;;-4.87;76.87
8705;BME280;4389;41.932;25.904;2023-02-12T00:10:04;101659.34;;;-4.74;76.70
8705;BME280;4389;41.932;25.904;2023-02-12T00:12:31;101661.97;;;-4.80;76.32
8705;BME280;4389;41.932;25.904;2023-02-12T00:14:58;101656.81;;;-4.75;76.17
8705;BME280;4389;41.932;25.904;2023-02-12T00:17:25;101663.50;;;-4.55;76.25
8705;BME280;4389;41.932;25.904;2023-02-12T00:19:51;101658.28;;;-4.50;76.24
8705;BME280;4389;41.932;25.904;2023-02-12T00:22:19;101664.28;;;-4.47;75.99
8705;BME280;4389;41.932;25.904;2023-02-12T00:24:46;101651.22;;;-4.32;75.67
8705;BME280;4389;41.932;25.904;2023-02-12T00:27:13;101655.47;;;-4.25;75.74
8705;BME280;4389;41.932;25.904;2023-02-12T00:29:40;101655.38;;;-4.16;75.64
8705;BME280;4389;41.932;25.904;2023-02-12T00:32:07;101663.97;;;-4.14;75.58
8705;BME280;4389;41.932;25.904;2023-02-12T00:34:34;101655.34;;;-4.13;74.88
8705;BME280;4389;41.932;25.904;2023-02-12T00:37:01;101663.09;;;-4.13;74.36
8705;BME280;4389;41.932;25.904;2023-02-12T00:39:29;101668.44;;;-4.31;74.51
8705;BME280;4389;41.932;25.904;2023-02-12T00:41:56;101662.50;;;-4.39;75.26
8705;BME280;4389;41.932;25.904;2023-02-12T00:44:23;101658.09;;;-4.28;75.19
8705;BME280;4389;41.932;25.904;2023-02-12T00:46:50;101646.72;;;-4.11;74.96
8705;BME280;4389;41.932;25.904;2023-02-12T00:49:16;101650.91;;;-4.01;74.91
8705;BME280;4389;41.932;25.904;2023-02-12T00:51:44;101647.50;;;-4.03;74.58
8705;BME280;4389;41.932;25.904;2023-02-12T00:54:11;101635.41;;;-4.01;75.51
8705;BME280;4389;41.932;25.904;2023-02-12T00:56:39;101636.28;;;-4.03;75.56
8705;BME280;4389;41.932;25.904;2023-02-12T00:59:06;101639.63;;;-3.92;75.28
8705;BME280;4389;41.932;25.904;2023-02-12T01:01:33;101630.94;;;-3.88;75.60
8705;BME280;4389;41.932;25.904;2023-02-12T01:04:00;101631.75;;;-3.82;75.86
8705;BME280;4389;41.932;25.904;2023-02-12T01:06:27;101622.16;;;-3.72;75.65
8705;BME280;4389;41.932;25.904;2023-02-12T01:08:54;101628.72;;;-3.49;75.16
8705;BME280;4389;41.932;25.904;2023-02-12T01:11:20;101626.91;;;-3.42;73.89
8705;BME280;4389;41.932;25.904;2023-02-12T01:13:49;101620.06;;;-3.46;74.61
8705;BME280;4389;41.932;25.904;2023-02-12T01:16:17;101618.34;;;-3.44;75.08
8705;BME280;4389;41.932;25.904;2023-02-12T01:18:45;101616.28;;;-3.21;75.13
8705;BME280;4389;41.932;25.904;2023-02-12T01:21:14;101614.56;;;-3.22;75.78
8705;BME280;4389;41.932;25.904;2023-02-12T01:23:42;101611.03;;;-3.15;75.74
8705;BME280;4389;41.932;25.904;2023-02-12T01:26:09;101610.09;;;-3.13;75.71
8705;BME280;4389;41.932;25.904;2023-02-12T01:28:37;101613.63;;;-3.18;76.20
8705;BME280;4389;41.932;25.904;2023-02-12T01:31:09;101603.38;;;-3.24;76.29
8705;BME280;4389;41.932;25.904;2023-02-12T01:33:36;101613.69;;;-3.21;75.96
8705;BME280;4389;41.932;25.904;2023-02-12T01:36:03;101613.53;;;-3.11;75.57
8705;BME280;4389;41.932;25.904;2023-02-12T01:38:30;101600.03;;;-3.32;75.00
8705;BME280;4389;41.932;25.904;2023-02-12T01:41:01;101602.38;;;-3.16;75.27
8705;BME280;4389;41.932;25.904;2023-02-12T01:43:28;101597.13;;;-3.11;74.61
8705;BME280;4389;41.932;25.904;2023-02-12T01:45:58;101595.28;;;-3.03;74.16
8705;BME280;4389;41.932;25.904;2023-02-12T01:48:28;101585.66;;;-2.95;73.90
8705;BME280;4389;41.932;25.904;2023-02-12T01:50:57;101591.00;;;-3.06;73.82
8705;BME280;4389;41.932;25.904;2023-02-12T01:53:30;101593.00;;;-3.21;74.73
8705;BME280;4389;41.932;25.904;2023-02-12T01:55:59;101594.69;;;-3.20;75.51
8705;BME280;4389;41.932;25.904;2023-02-12T01:58:30;101591.81;;;-3.02;74.90
8705;BME280;4389;41.932;25.904;2023-02-12T02:01:00;101598.66;;;-2.98;75.03
8705;BME280;4389;41.932;25.904;2023-02-12T02:03:29;101600.59;;;-3.11;75.62
8705;BME280;4389;41.932;25.904;2023-02-12T02:06:00;101596.13;;;-3.01;76.02
8705;BME280;4389;41.932;25.904;2023-02-12T02:08:29;101605.63;;;-3.03;76.07
8705;BME280;4389;41.932;25.904;2023-02-12T02:10:56;101601.19;;;-2.95;76.15
8705;BME280;4389;41.932;25.904;2023-02-12T02:13:23;101598.56;;;-2.91;76.00
8705;BME280;4389;41.932;25.904;2023-02-12T02:16:13;101604.41;;;-2.81;75.92
8705;BME280;4389;41.932;25.904;2023-02-12T02:18:49;101607.31;;;-2.99;76.09
8705;BME280;4389;41.932;25.904;2023-02-12T02:27:30;101608.38;;;-3.14;77.09
8705;BME280;4389;41.932;25.904;2023-02-12T02:30:24;101598.84;;;-3.10;77.54
8705;BME280;4389;41.932;25.904;2023-02-12T02:33:03;101605.63;;;-3.03;76.94
8705;BME280;4389;41.932;25.904;2023-02-12T02:35:40;101609.28;;;-3.16;76.93
8705;BME280;4389;41.932;25.904;2023-02-12T02:38:19;101602.41;;;-3.17;76.75
8705;BME280;4389;41.932;25.904;2023-02-12T02:40:50;101603.03;;;-3.02;76.56
8705;BME280;4389;41.932;25.904;2023-02-12T02:43:22;101608.53;;;-3.24;76.21
8705;BME280;4389;41.932;25.904;2023-02-12T02:45:55;101602.53;;;-3.23;76.73
8705;BME280;4389;41.932;25.904;2023-02-12T02:48:29;101598.16;;;-3.20;76.89
8705;BME280;4389;41.932;25.904;2023-02-12T02:51:01;101601.47;;;-3.12;76.88
8705;BME280;4389;41.932;25.904;2023-02-12T02:53:31;101605.97;;;-3.24;77.88
8705;BME280;4389;41.932;25.904;2023-02-12T02:56:02;101600.78;;;-3.24;78.62
8705;BME280;4389;41.932;25.904;2023-02-12T02:58:31;101604.09;;;-3.16;79.54
8705;BME280;4389;41.932;25.904;2023-02-12T03:01:05;101605.97;;;-3.24;80.26
8705;BME280;4389;41.932;25.904;2023-02-12T03:03:37;101614.56;;;-3.22;80.31
8705;BME280;4389;41.932;25.904;2023-02-12T03:06:09;101618.56;;;-3.02;80.56
8705;BME280;4389;41.932;25.904;2023-02-12T03:08:39;101621.53;;;-3.27;80.77
8705;BME280;4389;41.932;25.904;2023-02-12T03:11:11;101617.97;;;-3.20;80.44
8705;BME280;4389;41.932;25.904;2023-02-12T03:13:44;101617.03;;;-3.15;80.33
8705;BME280;4389;41.932;25.904;2023-02-12T03:16:17;101611.03;;;-3.15;79.96
8705;BME280;4389;41.932;25.904;2023-02-12T03:18:51;101607.47;;;-3.08;80.04
8705;BME280;4389;41.932;25.904;2023-02-12T03:21:25;101609.47;;;-3.28;79.74
8705;BME280;4389;41.932;25.904;2023-02-12T03:23:59;101609.28;;;-3.16;78.86
8705;BME280;4389;41.932;25.904;2023-02-12T03:26:37;101599.63;;;-3.04;77.21
8705;BME280;4389;41.932;25.904;2023-02-12T03:29:06;101596.53;;;-2.72;76.01
8705;BME280;4389;41.932;25.904;2023-02-12T03:31:44;101598.03;;;-2.59;74.29
8705;BME280;4389;41.932;25.904;2023-02-12T03:34:23;101587.50;;;-2.50;71.92
8705;BME280;4389;41.932;25.904;2023-02-12T03:36:55;101592.56;;;-2.44;71.06
8705;BME280;4389;41.932;25.904;2023-02-12T03:39:29;101600.94;;;-2.30;70.44
8705;BME280;4389;41.932;25.904;2023-02-12T03:42:03;101595.50;;;-2.18;68.96
8705;BME280;4389;41.932;25.904;2023-02-12T03:44:45;101596.31;;;-2.15;68.22
8705;BME280;4389;41.932;25.904;2023-02-12T03:47:21;101587.63;;;-2.12;67.58
8705;BME280;4389;41.932;25.904;2023-02-12T03:49:54;101579.72;;;-2.06;67.40
8705;BME280;4389;41.932;25.904;2023-02-12T03:52:25;101566.91;;;-2.12;67.58
8705;BME280;4389;41.932;25.904;2023-02-12T03:54:52;101569.28;;;-2.03;67.92
8705;BME280;4389;41.932;25.904;2023-02-12T03:57:21;101563.06;;;-1.93;67.45
8705;BME280;4389;41.932;25.904;2023-02-12T03:59:50;101555.47;;;-2.02;67.07
8705;BME280;4389;41.932;25.904;2023-02-12T04:02:18;101569.44;;;-2.09;67.55
8705;BME280;4389;41.932;25.904;2023-02-12T04:04:46;101567.84;;;-2.16;67.34
8705;BME280;4389;41.932;25.904;2023-02-12T04:07:15;101567.72;;;-2.10;66.47
8705;BME280;4389;41.932;25.904;2023-02-12T04:09:42;101578.03;;;-2.07;66.39
8705;BME280;4389;41.932;25.904;2023-02-12T04:12:21;101580.25;;;-1.89;66.55
8705;BME280;4389;41.932;25.904;2023-02-12T04:14:56;101575.16;;;-1.94;66.52
8705;BME280;4389;41.932;25.904;2023-02-12T04:17:37;101582.81;;;-1.89;65.77
8705;BME280;4389;41.932;25.904;2023-02-12T04:20:15;101578.19;;;-1.74;65.40
8705;BME280;4389;41.932;25.904;2023-02-12T04:22:53;101575.56;;;-1.72;64.99
8705;BME280;4389;41.932;25.904;2023-02-12T04:25:28;101579.31;;;-1.85;64.79
8705;BME280;4389;41.932;25.904;2023-02-12T04:28:04;101579.31;;;-1.85;65.69
8705;BME280;4389;41.932;25.904;2023-02-12T04:30:34;101580.75;;;-1.72;64.88
8705;BME280;4389;41.932;25.904;2023-02-12T04:33:06;101575.44;;;-1.66;64.49
8705;BME280;4389;41.932;25.904;2023-02-12T04:35:45;101585.66;;;-1.60;64.83
8705;BME280;4389;41.932;25.904;2023-02-12T04:38:17;101598.72;;;-1.63;65.07
8705;BME280;4389;41.932;25.904;2023-02-12T04:40:47;101600.44;;;-1.64;64.92
8705;BME280;4389;41.932;25.904;2023-02-12T04:43:25;101606.56;;;-1.66;64.64
8705;BME280;4389;41.932;25.904;2023-02-12T04:45:52;101616.19;;;-1.73;64.60
8705;BME280;4389;41.932;25.904;2023-02-12T04:48:20;101620.41;;;-1.67;64.67
8705;BME280;4389;41.932;25.904;2023-02-12T04:50:48;101614.63;;;-1.80;64.61
8705;BME280;4389;41.932;25.904;2023-02-12T04:53:14;101615.41;;;-1.76;64.94
8705;BME280;4389;41.932;25.904;2023-02-12T04:55:41;101623.75;;;-1.62;65.30
8705;BME280;4389;41.932;25.904;2023-02-12T04:58:08;101616.66;;;-1.54;64.85
8705;BME280;4389;41.932;25.904;2023-02-12T05:00:35;101620.16;;;-1.55;64.48
8705;BME280;4389;41.932;25.904;2023-02-12T05:03:02;101617.34;;;-1.46;63.94
8705;BME280;4389;41.932;25.904;2023-02-12T05:05:31;101618.38;;;-1.53;63.52
8705;BME280;4389;41.932;25.904;2023-02-12T05:07:58;101608.00;;;-1.53;63.74
8705;BME280;4389;41.932;25.904;2023-02-12T05:10:25;101611.22;;;-1.42;64.35
8705;BME280;4389;41.932;25.904;2023-02-12T05:12:52;101627.13;;;-1.57;63.98
8705;BME280;4389;41.932;25.904;2023-02-12T05:15:19;101620.09;;;-1.52;65.06
8705;BME280;4389;41.932;25.904;2023-02-12T05:17:46;101625.00;;;-1.40;64.96
8705;BME280;4389;41.932;25.904;2023-02-12T05:20:13;101632.53;;;-1.28;64.35
8705;BME280;4389;41.932;25.904;2023-02-12T05:22:41;101631.63;;;-1.27;63.12
8705;BME280;4389;41.932;25.904;2023-02-12T05:25:08;101639.56;;;-1.33;63.30
8705;BME280;4389;41.932;25.904;2023-02-12T05:27:36;101631.50;;;-1.21;63.06
8705;BME280;4389;41.932;25.904;2023-02-12T05:30:03;101635.47;;;-1.07;63.11
8705;BME280;4389;41.932;25.904;2023-02-12T05:32:30;101644.69;;;-1.30;66.95
8705;BME280;4389;41.932;25.904;2023-02-12T05:34:57;101653.50;;;-1.37;68.51
8705;BME280;4389;41.932;25.904;2023-02-12T05:37:24;101654.22;;;-1.32;68.55
8705;BME280;4389;41.932;25.904;2023-02-12T05:39:53;101651.59;;;-1.29;69.06
8705;BME280;4389;41.932;25.904;2023-02-12T05:42:19;101664.22;;;-1.14;69.77
8705;BME280;4389;41.932;25.904;2023-02-12T05:44:46;101658.78;;;-1.02;67.77
8705;BME280;4389;41.932;25.904;2023-02-12T05:47:13;101671.78;;;-1.04;69.52
8705;BME280;4389;41.932;25.904;2023-02-12T05:49:40;101667.75;;;-1.18;69.84
8705;BME280;4389;41.932;25.904;2023-02-12T05:52:07;101659.16;;;-1.20;70.36
8705;BME280;4389;41.932;25.904;2023-02-12T05:54:34;101665.03;;;-1.12;69.21
8705;BME280;4389;41.932;25.904;2023-02-12T05:57:02;101654.94;;;-0.86;69.75
8705;BME280;4389;41.932;25.904;2023-02-12T05:59:29;101663.16;;;-0.69;69.84
8705;BME280;4389;41.932;25.904;2023-02-12T06:01:55;101675.34;;;-0.71;70.31
8705;BME280;4389;41.932;25.904;2023-02-12T06:04:24;101676.75;;;-0.58;69.84
8705;BME280;4389;41.932;25.904;2023-02-12T06:06:52;101684.97;;;-0.76;67.64
8705;BME280;4389;41.932;25.904;2023-02-12T06:09:20;101683.22;;;-0.74;66.20
8705;BME280;4389;41.932;25.904;2023-02-12T06:11:47;101685.66;;;-0.68;64.05
8705;BME280;4389;41.932;25.904;2023-02-12T06:14:18;101690.47;;;-0.53;nan
8705;BME280;4389;41.932;25.904;2023-02-12T06:16:46;101694.34;;;-0.34;62.60
8705;BME280;4389;41.932;25.904;2023-02-12T06:19:14;101696.69;;;-0.25;61.35
8705;BME280;4389;41.932;25.904;2023-02-12T06:21:41;101691.06;;;-0.08;60.75
8705;BME280;4389;41.932;25.904;2023-02-12T06:24:08;101682.59;;;-0.15;63.92
8705;BME280;4389;41.932;25.904;2023-02-12T06:26:35;101696.78;;;0.05;63.62
8705;BME280;4389;41.932;25.904;2023-02-12T06:29:02;101689.91;;;0.02;63.81
8705;BME280;4389;41.932;25.904;2023-02-12T06:31:32;101690.50;;;0.13;64.98
8705;BME280;4389;41.932;25.904;2023-02-12T06:34:01;101690.81;;;0.01;67.37
8705;BME280;4389;41.932;25.904;2023-02-12T06:36:28;101696.78;;;0.05;68.42
8705;BME280;4389;41.932;25.904;2023-02-12T06:38:55;101692.03;;;0.20;67.94
8705;BME280;4389;41.932;25.904;2023-02-12T06:41:22;101685.13;;;0.19;68.51
8705;BME280;4389;41.932;25.904;2023-02-12T06:43:49;101686.56;;;0.29;68.52
8705;BME280;4389;41.932;25.904;2023-02-12T06:46:16;101684.53;;;0.40;68.95
8705;BME280;4389;41.932;25.904;2023-02-12T06:48:44;101684.16;;;0.52;68.13
8705;BME280;4389;41.932;25.904;2023-02-12T06:51:14;101690.66;;;0.68;67.52
8705;BME280;4389;41.932;25.904;2023-02-12T06:53:41;101697.31;;;0.78;67.11
8705;BME280;4389;41.932;25.904;2023-02-12T06:56:10;101692.09;;;0.78;65.06
8705;BME280;4389;41.932;25.904;2023-02-12T06:58:38;101696.84;;;0.93;63.24
8705;BME280;4389;41.932;25.904;2023-02-12T07:01:09;101695.22;;;1.18;61.69
8705;BME280;4389;41.932;25.904;2023-02-12T07:03:38;101697.25;;;1.36;60.83
8705;BME280;4389;41.932;25.904;2023-02-12T07:06:08;101700.84;;;1.32;58.29
8705;BME280;4389;41.932;25.904;2023-02-12T07:08:35;101707.38;;;1.45;56.97
8705;BME280;4389;41.932;25.904;2023-02-12T07:11:02;101709.00;;;1.49;57.15
8705;BME280;4389;41.932;25.904;2023-02-12T07:13:29;101702.91;;;1.49;57.06
8705;BME280;4389;41.932;25.904;2023-02-12T07:15:56;101705.59;;;1.47;57.27
8705;BME280;4389;41.932;25.904;2023-02-12T07:18:22;101700.38;;;1.47;56.72
8705;BME280;4389;41.932;25.904;2023-02-12T07:20:49;101708.19;;;1.73;57.52
8705;BME280;4389;41.932;25.904;2023-02-12T07:23:17;101713.03;;;2.10;56.92
8705;BME280;4389;41.932;25.904;2023-02-12T07:25:53;101717.75;;;2.23;56.17
8705;BME280;4389;41.932;25.904;2023-02-12T07:28:20;101716.88;;;2.24;56.45
8705;BME280;4389;41.932;25.904;2023-02-12T07:30:47;101720.06;;;2.32;56.27
8705;BME280;4389;41.932;25.904;2023-02-12T07:33:14;101718.13;;;2.37;56.21
8705;BME280;4389;41.932;25.904;2023-02-12T07:35:40;101725.91;;;2.63;55.86
8705;BME280;4389;41.932;25.904;2023-02-12T07:38:07;101725.56;;;2.72;55.45
8705;BME280;4389;41.932;25.904;2023-02-12T07:40:35;101729.22;;;2.68;55.50
8705;BME280;4389;41.932;25.904;2023-02-12T07:43:02;101718.84;;;2.65;55.11
8705;BME280;4389;41.932;25.904;2023-02-12T07:45:29;101717.63;;;2.52;55.76
8705;BME280;4389;41.932;25.904;2023-02-12T07:47:56;101718.75;;;2.45;56.08
8705;BME280;4389;41.932;25.904;2023-02-12T07:50:23;101715.03;;;2.75;55.83
8705;BME280;4389;41.932;25.904;2023-02-12T07:52:49;101720.47;;;2.69;55.51
8705;BME280;4389;41.932;25.904;2023-02-12T07:55:16;101722.38;;;2.64;55.46
8705;BME280;4389;41.932;25.904;2023-02-12T07:57:45;101728.19;;;2.95;55.51
8705;BME280;4389;41.932;25.904;2023-02-12T08:00:13;101724.94;;;3.12;54.67
8705;BME280;4389;41.932;25.904;2023-02-12T08:02:40;101722.38;;;3.10;53.85
8705;BME280;4389;41.932;25.904;2023-02-12T08:05:07;101729.91;;;2.96;53.99
8705;BME280;4389;41.932;25.904;2023-02-12T08:07:34;101730.34;;;3.07;53.90
8705;BME280;4389;41.932;25.904;2023-02-12T08:10:01;101727.41;;;3.38;53.24
8705;BME280;4389;41.932;25.904;2023-02-12T08:12:28;101729.97;;;3.39;53.36
8705;BME280;4389;41.932;25.904;2023-02-12T08:14:56;101743.91;;;3.17;53.10
8705;BME280;4389;41.932;25.904;2023-02-12T08:17:23;101739.19;;;3.48;52.39
8705;BME280;4389;41.932;25.904;2023-02-12T08:19:50;101733.72;;;3.75;51.86
8705;BME280;4389;41.932;25.904;2023-02-12T08:22:16;101733.88;;;3.92;51.42
8705;BME280;4389;41.932;25.904;2023-02-12T08:24:43;101737.19;;;4.17;51.14
8705;BME280;4389;41.932;25.904;2023-02-12T08:27:10;101745.09;;;4.16;50.01
8705;BME280;4389;41.932;25.904;2023-02-12T08:29:37;101745.66;;;3.82;51.22
8705;BME280;4389;41.932;25.904;2023-02-12T08:32:05;101752.81;;;3.99;50.97
8705;BME280;4389;41.932;25.904;2023-02-12T08:34:34;101753.34;;;4.07;50.43
8705;BME280;4389;41.932;25.904;2023-02-12T08:37:03;101756.56;;;4.33;50.38
8705;BME280;4389;41.932;25.904;2023-02-12T08:39:30;101758.13;;;4.57;48.93
8705;BME280;4389;41.932;25.904;2023-02-12T08:41:58;101757.59;;;4.49;49.14
8705;BME280;4389;41.932;25.904;2023-02-12T08:44:25;101766.13;;;4.74;49.32
8705;BME280;4389;41.932;25.904;2023-02-12T08:46:53;101769.09;;;4.85;48.32
8705;BME280;4389;41.932;25.904;2023-02-12T08:49:24;101769.97;;;4.85;48.27
8705;BME280;4389;41.932;25.904;2023-02-12T08:51:53;101766.22;;;5.09;47.86
8705;BME280;4389;41.932;25.904;2023-02-12T08:54:22;101765.59;;;5.23;47.74
8705;BME280;4389;41.932;25.904;2023-02-12T08:56:49;101773.25;;;5.09;48.47
8705;BME280;4389;41.932;25.904;2023-02-12T08:59:16;101779.06;;;5.34;47.97
8705;BME280;4389;41.932;25.904;2023-02-12T09:01:43;101777.34;;;5.70;47.52
8705;BME280;4389;41.932;25.904;2023-02-12T09:04:13;101777.59;;;6.01;46.33
8705;BME280;4389;41.932;25.904;2023-02-12T09:06:44;101769.91;;;6.15;46.12
8705;BME280;4389;41.932;25.904;2023-02-12T09:09:11;101775.75;;;6.20;46.50
8705;BME280;4389;41.932;25.904;2023-02-12T09:11:38;101773.94;;;5.68;47.26
8705;BME280;4389;41.932;25.904;2023-02-12T09:14:07;101783.16;;;5.39;47.03
8705;BME280;4389;41.932;25.904;2023-02-12T09:16:36;101777.34;;;5.51;46.35
8705;BME280;4389;41.932;25.904;2023-02-12T09:19:04;101781.34;;;5.60;46.62
8705;BME280;4389;41.932;25.904;2023-02-12T09:21:31;101768.66;;;5.51;45.34
8705;BME280;4389;41.932;25.904;2023-02-12T09:24:00;101770.03;;;6.12;44.20
8705;BME280;4389;41.932;25.904;2023-02-12T09:26:26;101777.00;;;6.47;42.86
8705;BME280;4389;41.932;25.904;2023-02-12T09:28:54;101775.41;;;6.77;42.09
8705;BME280;4389;41.932;25.904;2023-02-12T09:31:22;101781.03;;;7.19;42.11
8705;BME280;4389;41.932;25.904;2023-02-12T09:33:51;101775.41;;;7.09;41.88
8705;BME280;4389;41.932;25.904;2023-02-12T09:36:18;101772.25;;;7.03;41.42
8705;BME280;4389;41.932;25.904;2023-02-12T09:38:46;101770.31;;;6.74;42.33
8705;BME280;4389;41.932;25.904;2023-02-12T09:44:23;101774.09;;;7.49;40.64
8705;BME280;4389;41.932;25.904;2023-02-12T09:46:58;101770.91;;;8.04;39.61
8705;BME280;4389;41.932;25.904;2023-02-12T09:49:42;101765.53;;;8.51;38.22
8705;BME280;4389;41.932;25.904;2023-02-12T09:52:15;101756.75;;;8.36;38.59
8705;BME280;4389;41.932;25.904;2023-02-12T09:54:43;101761.81;;;9.10;37.35
8705;BME280;4389;41.932;25.904;2023-02-12T09:57:16;101770.00;;;9.34;36.19
8705;BME280;4389;41.932;25.904;2023-02-12T09:59:50;101761.97;;;9.49;36.84
8705;BME280;4389;41.932;25.904;2023-02-12T10:02:19;101758.78;;;9.02;36.63
8705;BME280;4389;41.932;25.904;2023-02-12T10:04:47;101758.94;;;8.44;37.05
8705;BME280;4389;41.932;25.904;2023-02-12T10:07:22;101761.19;;;8.36;38.28
8705;BME280;4389;41.932;25.904;2023-02-12T10:10:04;101751.53;;;8.21;39.02
8705;BME280;4389;41.932;25.904;2023-02-12T10:12:40;101751.78;;;8.46;39.00
8705;BME280;4389;41.932;25.904;2023-02-12T10:15:16;101739.19;;;8.79;38.81
8705;BME280;4389;41.932;25.904;2023-02-12T10:17:55;101748.03;;;9.05;37.70
8705;BME280;4389;41.932;25.904;2023-02-12T10:20:39;101737.09;;;8.83;38.09
8705;BME280;4389;41.932;25.904;2023-02-12T10:23:24;101745.38;;;8.50;38.81
8705;BME280;4389;41.932;25.904;2023-02-12T10:25:54;101741.03;;;8.63;38.93
8705;BME280;4389;41.932;25.904;2023-02-12T10:28:26;101747.25;;;9.31;38.27
8705;BME280;4389;41.932;25.904;2023-02-12T10:30:55;101742.03;;;9.84;36.74
8705;BME280;4389;41.932;25.904;2023-02-12T10:33:27;101746.38;;;9.85;36.45
8705;BME280;4389;41.932;25.904;2023-02-12T10:35:59;101742.78;;;9.86;35.76
8705;BME280;4389;41.932;25.904;2023-02-12T10:38:30;101740.06;;;9.47;37.09
8705;BME280;4389;41.932;25.904;2023-02-12T10:40:58;101740.31;;;9.57;37.62
8705;BME280;4389;41.932;25.904;2023-02-12T10:43:28;101738.63;;;9.01;36.36
8705;BME280;4389;41.932;25.904;2023-02-12T10:45:56;101735.84;;;9.45;35.81
8705;BME280;4389;41.932;25.904;2023-02-12T10:48:26;101733.13;;;9.18;35.73
8705;BME280;4389;41.932;25.904;2023-02-12T10:51:03;101733.63;;;8.97;34.62
8705;BME280;4389;41.932;25.904;2023-02-12T10:53:36;101737.69;;;8.75;35.01
8705;BME280;4389;41.932;25.904;2023-02-12T10:56:11;101735.91;;;8.89;33.60
8705;BME280;4389;41.932;25.904;2023-02-12T10:58:49;101735.13;;;8.73;34.21
8705;BME280;4389;41.932;25.904;2023-02-12T11:01:19;101734.88;;;8.92;34.88
8705;BME280;4389;41.932;25.904;2023-02-12T11:03:47;101745.69;;;9.01;34.60
8705;BME280;4389;41.932;25.904;2023-02-12T11:06:15;101740.84;;;9.35;34.54
8705;BME280;4389;41.932;25.904;2023-02-12T11:08:43;101743.38;;;9.77;33.61
8705;BME280;4389;41.932;25.904;2023-02-12T11:11:11;101745.88;;;9.66;34.26
8705;BME280;4389;41.932;25.904;2023-02-12T11:13:43;101745.75;;;9.41;34.60
8705;BME280;4389;41.932;25.904;2023-02-12T11:16:13;101751.81;;;9.29;35.46
8705;BME280;4389;41.932;25.904;2023-02-12T11:18:42;101748.81;;;9.21;35.55
8705;BME280;4389;41.932;25.904;2023-02-12T11:21:10;101754.25;;;8.90;35.46
8705;BME280;4389;41.932;25.904;2023-02-12T11:23:39;101752.00;;;8.71;36.36
8705;BME280;4389;41.932;25.904;2023-02-12T11:26:22;101742.09;;;8.46;37.20
8705;BME280;4389;41.932;25.904;2023-02-12T11:28:54;101741.31;;;8.58;37.45
8705;BME280;4389;41.932;25.904;2023-02-12T11:31:25;101747.09;;;8.65;37.23
8705;BME280;4389;41.932;25.904;2023-02-12T11:34:14;101743.91;;;9.01;37.72
8705;BME280;4389;41.932;25.904;2023-02-12T11:36:43;101750.13;;;9.14;36.87
8705;BME280;4389;41.932;25.904;2023-02-12T11:39:19;101752.53;;;9.45;37.37
8705;BME280;4389;41.932;25.904;2023-02-12T11:41:50;101748.81;;;8.93;37.47
8705;BME280;4389;41.932;25.904;2023-02-12T11:44:22;101739.72;;;9.25;36.88
8705;BME280;4389;41.932;25.904;2023-02-12T11:46:53;101748.31;;;9.01;37.58
8705;BME280;4389;41.932;25.904;2023-02-12T11:49:23;101748.03;;;9.19;37.03
8705;BME280;4389;41.932;25.904;2023-02-12T11:51:51;101754.91;;;9.22;37.25
8705;BME280;4389;41.932;25.904;2023-02-12T11:54:21;101744.84;;;9.28;36.94
8705;BME280;4389;41.932;25.904;2023-02-12T11:56:48;101748.25;;;9.02;37.96
8705;BME280;4389;41.932;25.904;2023-02-12T11:59:30;101745.59;;;8.88;38.19
8705;BME280;4389;41.932;25.904;2023-02-12T12:02:02;101751.81;;;9.01;37.60
8705;BME280;4389;41.932;25.904;2023-02-12T12:04:33;101749.91;;;8.76;37.63
8705;BME280;4389;41.932;25.904;2023-02-12T12:07:06;101745.56;;;8.61;38.57
8705;BME280;4389;41.932;25.904;2023-02-12T12:09:41;101751.44;;;8.80;38.33
8705;BME280;4389;41.932;25.904;2023-02-12T12:12:15;101746.91;;;8.82;38.41
8705;BME280;4389;41.932;25.904;2023-02-12T12:14:49;101759.66;;;8.75;38.58
8705;BME280;4389;41.932;25.904;2023-02-12T12:17:40;101757.06;;;8.60;37.72
8705;BME280;4389;41.932;25.904;2023-02-12T12:20:31;101760.78;;;8.85;38.68
8705;BME280;4389;41.932;25.904;2023-02-12T12:23:05;101753.97;;;9.09;38.07
8705;BME280;4389;41.932;25.904;2023-02-12T12:25:41;101755.94;;;9.33;38.55
8705;BME280;4389;41.932;25.904;2023-02-12T12:28:24;101753.09;;;9.50;37.73
8705;BME280;4389;41.932;25.904;2023-02-12T12:31:05;101764.97;;;9.57;37.11
8705;BME280;4389;41.932;25.904;2023-02-12T12:33:39;101769.78;;;9.37;37.59
8705;BME280;4389;41.932;25.904;2023-02-12T12:36:32;101775.94;;;9.37;37.27
8705;BME280;4389;41.932;25.904;2023-02-12T12:39:08;101757.75;;;9.33;38.94
8705;BME280;4389;41.932;25.904;2023-02-12T12:41:44;101759.72;;;9.43;38.08
8705;BME280;4389;41.932;25.904;2023-02-12T12:44:27;101776.47;;;9.56;38.45
8705;BME280;4389;41.932;25.904;2023-02-12T12:47:07;101771.19;;;9.56;38.47
8705;BME280;4389;41.932;25.904;2023-02-12T12:49:47;101778.53;;;9.65;38.97
8705;BME280;4389;41.932;25.904;2023-02-12T12:52:31;101776.81;;;9.78;38.71
8705;BME280;4389;41.932;25.904;2023-02-12T12:55:36;101782.75;;;9.41;37.95
8705;BME280;4389;41.932;25.904;2023-02-12T12:58:12;101785.00;;;9.05;38.66
8705;BME280;4389;41.932;25.904;2023-02-12T13:00:56;101778.97;;;9.17;38.35
8705;BME280;4389;41.932;25.904;2023-02-12T13:03:42;101796.31;;;9.21;39.08
8705;BME280;4389;41.932;25.904;2023-02-12T13:06:23;101798.69;;;8.98;38.69
8705;BME280;4389;41.932;25.904;2023-02-12T13:09:16;101790.81;;;8.69;39.42
8705;BME280;4389;41.932;25.904;2023-02-12T13:12:07;101786.53;;;8.52;40.71
8705;BME280;4389;41.932;25.904;2023-02-12T13:14:43;101804.16;;;8.52;40.90
8705;BME280;4389;41.932;25.904;2023-02-12T13:17:17;101800.78;;;8.50;39.75
8705;BME280;4389;41.932;25.904;2023-02-12T13:19:59;101807.06;;;8.47;40.42
8705;BME280;4389;41.932;25.904;2023-02-12T13:22:33;101815.25;;;8.43;40.55
8705;BME280;4389;41.932;25.904;2023-02-12T13:25:06;101808.22;;;8.57;39.84
8705;BME280;4389;41.932;25.904;2023-02-12T13:27:43;101807.59;;;8.68;39.68
8705;BME280;4389;41.932;25.904;2023-02-12T13:30:19;101825.50;;;8.77;39.52
8705;BME280;4389;41.932;25.904;2023-02-12T13:33:00;101820.81;;;8.82;38.97